createdAt,value
2017-09-05T00:00:23.266Z,95.10
2017-09-05T00:02:50.751Z,95.10
2017-09-05T00:05:18.210Z,95.30
2017-09-05T00:07:48.127Z,95.20
2017-09-05T00:10:15.608Z,95.10
2017-09-05T00:12:46.755Z,95.00
2017-09-05T00:15:19.315Z,95.10
2017-09-05T00:18:01.664Z,95.10
2017-09-05T00:20:30.709Z,95.30
2017-09-05T00:23:00.016Z,95.30
2017-09-05T00:25:27.517Z,95.30
2017-09-05T00:27:55.746Z,95.40
2017-09-05T00:30:23.322Z,95.40
2017-09-05T00:32:50.878Z,95.40
2017-09-05T00:35:19.267Z,95.40
2017-09-05T00:37:47.019Z,95.50
2017-09-05T00:40:14.483Z,95.70
2017-09-05T00:42:41.957Z,95.60
2017-09-05T00:45:09.423Z,96.00
2017-09-05T00:47:36.890Z,95.60
2017-09-05T00:50:04.383Z,95.60
2017-09-05T00:52:31.848Z,95.70
2017-09-05T00:54:59.307Z,95.70
2017-09-05T00:57:26.873Z,95.70
2017-09-05T00:59:55.145Z,95.90
2017-09-05T01:02:22.603Z,96.00
2017-09-05T01:04:50.074Z,96.00
2017-09-05T01:07:17.620Z,96.00
2017-09-05T01:09:45.179Z,96.00
2017-09-05T01:12:12.742Z,96.10
2017-09-05T01:14:40.199Z,96.00
2017-09-05T01:17:07.657Z,96.00
2017-09-05T01:19:35.227Z,96.40
2017-09-05T01:22:03.464Z,96.30
2017-09-05T01:24:30.975Z,96.30
2017-09-05T01:26:58.503Z,96.20
2017-09-05T01:29:25.971Z,96.40
2017-09-05T01:31:53.504Z,96.40
2017-09-05T01:34:20.974Z,96.40
2017-09-05T01:36:48.535Z,96.40
2017-09-05T01:39:16.102Z,96.40
2017-09-05T01:41:43.654Z,96.40
2017-09-05T01:44:11.117Z,96.90
2017-09-05T01:46:38.583Z,96.40
2017-09-05T01:49:06.610Z,96.50
2017-09-05T01:51:34.088Z,96.50
2017-09-05T01:54:01.554Z,96.50
2017-09-05T01:56:29.029Z,96.50
2017-09-05T01:58:56.485Z,96.50
2017-09-05T02:01:23.959Z,96.50
2017-09-05T02:03:51.481Z,96.50
2017-09-05T02:06:18.947Z,96.50
2017-09-05T02:08:46.410Z,96.60
2017-09-05T02:11:13.952Z,96.70
2017-09-05T02:13:41.507Z,96.70
2017-09-05T02:16:09.635Z,96.60
2017-09-05T02:18:37.098Z,96.70
2017-09-05T02:21:04.605Z,96.70
2017-09-05T02:23:32.164Z,96.80
2017-09-05T02:25:59.711Z,96.80
2017-09-05T02:28:28.092Z,96.70
2017-09-05T02:30:55.555Z,96.80
2017-09-05T02:33:23.099Z,96.80
2017-09-05T02:35:50.659Z,96.90
2017-09-05T02:38:18.131Z,96.90
2017-09-05T02:40:45.627Z,96.90
2017-09-05T02:43:13.142Z,96.80
2017-09-05T02:45:40.692Z,96.80
2017-09-05T02:48:08.167Z,96.70
2017-09-05T02:50:35.622Z,96.80
2017-09-05T02:53:03.088Z,96.70
2017-09-05T02:55:30.622Z,96.80
2017-09-05T02:57:58.183Z,96.90
2017-09-05T03:00:25.652Z,97.00
2017-09-05T03:02:53.915Z,97.00
2017-09-05T03:05:21.380Z,97.00
2017-09-05T03:07:48.927Z,97.10
2017-09-05T03:10:16.395Z,97.10
2017-09-05T03:12:43.851Z,97.10
2017-09-05T03:15:12.111Z,97.00
2017-09-05T03:17:39.583Z,97.00
2017-09-05T03:20:07.827Z,97.00
2017-09-05T03:22:35.308Z,96.90
2017-09-05T03:25:02.859Z,96.90
2017-09-05T03:27:30.425Z,97.00
2017-09-05T03:29:57.956Z,96.90
2017-09-05T03:32:25.553Z,97.10
2017-09-05T03:34:53.101Z,96.90
2017-09-05T03:37:20.651Z,97.20
2017-09-05T03:39:48.122Z,97.00
2017-09-05T03:42:15.587Z,97.00
2017-09-05T03:44:43.135Z,96.70
2017-09-05T03:47:10.618Z,96.90
2017-09-05T03:49:38.099Z,97.00
2017-09-05T03:52:06.268Z,97.20
2017-09-05T03:54:33.739Z,97.10
2017-09-05T03:57:01.232Z,97.10
2017-09-05T03:59:28.774Z,97.00
2017-09-05T04:01:56.356Z,97.20
2017-09-05T04:04:23.915Z,97.20
2017-09-05T04:06:51.475Z,97.10
2017-09-05T04:09:19.035Z,97.20
2017-09-05T04:11:46.579Z,96.80
2017-09-05T04:14:14.139Z,97.10
2017-09-05T04:16:41.694Z,97.10
2017-09-05T04:19:09.479Z,97.00
2017-09-05T04:21:37.021Z,97.00
2017-09-05T04:24:04.492Z,97.10
2017-09-05T04:26:32.720Z,97.40
2017-09-05T04:29:00.190Z,97.00
2017-09-05T04:31:27.792Z,96.90
2017-09-05T04:33:56.030Z,97.00
2017-09-05T04:36:23.617Z,97.00
2017-09-05T04:38:51.170Z,97.00
2017-09-05T04:41:18.735Z,97.40
2017-09-05T04:43:46.283Z,96.90
2017-09-05T04:46:13.761Z,97.00
2017-09-05T04:48:41.304Z,97.10
2017-09-05T04:51:08.767Z,97.10
2017-09-05T04:53:36.564Z,97.50
2017-09-05T04:56:04.084Z,97.20
2017-09-05T04:58:31.615Z,97.30
2017-09-05T05:00:59.349Z,97.30
2017-09-05T05:03:28.591Z,97.20
2017-09-05T05:05:56.061Z,97.20
2017-09-05T05:08:23.610Z,97.20
2017-09-05T05:10:51.222Z,97.10
2017-09-05T05:13:18.682Z,97.10
2017-09-05T05:15:46.159Z,97.00
2017-09-05T05:18:13.643Z,96.90
2017-09-05T05:20:41.207Z,96.90
2017-09-05T05:23:08.767Z,96.80
2017-09-05T05:25:36.328Z,96.90
2017-09-05T05:28:03.783Z,97.10
2017-09-05T05:30:31.283Z,97.10
2017-09-05T05:32:58.744Z,96.70
2017-09-05T05:35:26.239Z,96.70
2017-09-05T05:37:53.712Z,96.50
2017-09-05T05:40:21.263Z,96.50
2017-09-05T05:42:48.741Z,96.70
2017-09-05T05:45:16.996Z,96.10
2017-09-05T05:47:44.459Z,96.10
2017-09-05T05:50:11.923Z,95.90
2017-09-05T05:52:39.475Z,96.00
2017-09-05T05:55:06.943Z,95.50
2017-09-05T05:57:34.478Z,95.70
2017-09-05T06:00:02.043Z,95.30
2017-09-05T06:02:29.505Z,95.20
2017-09-05T06:04:56.967Z,95.40
2017-09-05T06:07:24.448Z,95.10
2017-09-05T06:09:51.964Z,95.00
2017-09-05T06:12:19.435Z,94.80
2017-09-05T06:14:46.915Z,94.80
2017-09-05T06:17:14.451Z,94.90
2017-09-05T06:19:42.719Z,94.70
2017-09-05T06:22:10.279Z,94.70
2017-09-05T06:24:37.734Z,94.80
2017-09-05T06:27:05.202Z,94.60
2017-09-05T06:29:32.750Z,94.60
2017-09-05T06:32:00.304Z,94.50
2017-09-05T06:34:28.668Z,94.30
2017-09-05T06:36:56.159Z,94.20
2017-09-05T06:39:23.708Z,94.10
2017-09-05T06:41:51.168Z,93.90
2017-09-05T06:44:18.706Z,93.50
2017-09-05T06:46:46.180Z,93.20
2017-09-05T06:49:13.682Z,93.10
2017-09-05T06:51:41.168Z,92.70
2017-09-05T06:54:08.739Z,92.70
2017-09-05T06:56:36.202Z,92.30
2017-09-05T06:59:03.759Z,92.20
2017-09-05T07:01:31.321Z,92.00
2017-09-05T07:03:58.872Z,92.10
2017-09-05T07:06:26.435Z,91.90
2017-09-05T07:08:53.991Z,91.90
2017-09-05T07:11:21.557Z,91.80
2017-09-05T07:13:49.111Z,91.80
2017-09-05T07:16:16.627Z,92.00
2017-09-05T07:18:44.122Z,91.70
2017-09-05T07:21:11.839Z,91.80
2017-09-05T07:23:39.343Z,91.60
2017-09-05T07:26:06.904Z,91.80
2017-09-05T07:28:34.385Z,91.80
2017-09-05T07:31:01.844Z,91.60
2017-09-05T07:33:30.086Z,91.30
2017-09-05T07:35:57.591Z,91.30
2017-09-05T07:38:25.111Z,91.20
2017-09-05T07:40:52.663Z,90.40
2017-09-05T07:43:20.136Z,90.40
2017-09-05T07:45:47.607Z,89.70
2017-09-05T07:48:15.071Z,88.80
2017-09-05T07:50:42.540Z,87.60
2017-09-05T07:53:10.051Z,87.30
2017-09-05T07:55:37.525Z,87.40
2017-09-05T07:58:05.267Z,87.20
2017-09-05T08:00:32.833Z,86.90
2017-09-05T08:03:00.391Z,86.90
2017-09-05T08:05:27.868Z,85.70
2017-09-05T08:07:55.408Z,85.80
2017-09-05T08:10:22.871Z,86.30
2017-09-05T08:12:50.416Z,86.30
2017-09-05T08:15:17.987Z,86.20
2017-09-05T08:17:45.468Z,85.60
2017-09-05T08:20:12.991Z,85.40
2017-09-05T08:22:40.453Z,84.80
2017-09-05T08:25:08.384Z,84.50
2017-09-05T08:27:35.850Z,84.60
2017-09-05T08:30:03.329Z,84.40
2017-09-05T08:32:30.900Z,84.30
2017-09-05T08:34:58.372Z,84.00
2017-09-05T08:37:25.836Z,84.20
2017-09-05T08:39:53.309Z,84.50
2017-09-05T08:42:20.816Z,85.00
2017-09-05T08:44:48.283Z,85.10
2017-09-05T08:47:15.759Z,84.50
2017-09-05T08:49:43.995Z,84.90
2017-09-05T08:52:11.567Z,84.90
2017-09-05T08:54:39.848Z,84.80
2017-09-05T08:57:07.358Z,85.50
2017-09-05T08:59:34.856Z,85.40
2017-09-05T09:02:02.320Z,84.80
2017-09-05T09:04:29.871Z,85.60
2017-09-05T09:06:57.443Z,84.90
2017-09-05T09:09:25.001Z,84.60
2017-09-05T09:11:52.496Z,84.90
2017-09-05T09:14:19.960Z,84.20
2017-09-05T09:16:47.422Z,84.20
2017-09-05T09:19:14.905Z,85.10
2017-09-05T09:21:42.368Z,85.50
2017-09-05T09:24:09.833Z,85.40
2017-09-05T09:26:37.387Z,85.50
2017-09-05T09:29:04.851Z,85.70
2017-09-05T09:31:32.316Z,85.10
2017-09-05T09:33:59.856Z,84.50
2017-09-05T09:36:27.353Z,84.50
2017-09-05T09:38:54.793Z,85.00
2017-09-05T09:41:22.268Z,83.80
2017-09-05T09:43:49.733Z,82.30
2017-09-05T09:46:17.196Z,82.90
2017-09-05T09:48:44.753Z,83.40
2017-09-05T09:51:12.279Z,83.00
2017-09-05T09:53:39.821Z,82.00
2017-09-05T09:56:08.168Z,81.10
2017-09-05T09:58:35.655Z,80.90
2017-09-05T10:01:03.215Z,80.20
2017-09-05T10:03:30.908Z,79.00
2017-09-05T10:05:58.383Z,78.90
2017-09-05T10:08:25.851Z,78.70
2017-09-05T10:10:53.344Z,79.90
2017-09-05T10:13:20.799Z,79.30
2017-09-05T10:15:48.309Z,79.70
2017-09-05T10:18:15.815Z,79.50
2017-09-05T10:20:43.367Z,79.80
2017-09-05T10:23:10.831Z,80.20
2017-09-05T10:25:38.306Z,80.30
2017-09-05T10:28:05.779Z,80.60
2017-09-05T10:30:33.320Z,80.30
2017-09-05T10:33:00.810Z,80.40
2017-09-05T10:35:28.272Z,80.50
2017-09-05T10:37:55.752Z,80.80
2017-09-05T10:40:23.328Z,80.30
2017-09-05T10:42:50.916Z,80.80
2017-09-05T10:45:18.455Z,81.00
2017-09-05T10:47:46.034Z,79.60
2017-09-05T10:50:13.487Z,80.20
2017-09-05T10:52:41.042Z,80.10
2017-09-05T10:55:09.332Z,78.90
2017-09-05T10:57:36.972Z,78.80
2017-09-05T11:00:04.523Z,77.40
2017-09-05T11:02:32.279Z,77.80
2017-09-05T11:04:59.750Z,77.70
2017-09-05T11:07:27.220Z,77.90
2017-09-05T11:09:55.579Z,78.50
2017-09-05T11:12:23.044Z,78.50
2017-09-05T11:14:50.503Z,79.10
2017-09-05T11:17:17.980Z,79.90
2017-09-05T11:19:45.476Z,79.90
2017-09-05T11:22:13.072Z,80.30
2017-09-05T11:24:40.624Z,80.00
2017-09-05T11:27:08.079Z,79.60
2017-09-05T11:29:35.548Z,79.80
2017-09-05T11:32:03.815Z,80.50
2017-09-05T11:34:31.288Z,80.40
2017-09-05T11:36:58.759Z,79.70
2017-09-05T11:39:26.241Z,79.50
2017-09-05T11:41:53.700Z,80.10
2017-09-05T11:44:21.195Z,80.30
2017-09-05T11:46:49.576Z,80.80
2017-09-05T11:49:17.039Z,80.60
2017-09-05T11:51:44.499Z,82.20
2017-09-05T11:54:12.860Z,83.10
2017-09-05T11:56:40.315Z,82.90
2017-09-05T11:59:07.791Z,83.10
2017-09-05T12:01:36.356Z,84.90
2017-09-05T12:04:03.811Z,84.90
2017-09-05T12:06:31.385Z,85.90
2017-09-05T12:08:58.867Z,86.30
2017-09-05T12:11:26.395Z,86.70
2017-09-05T12:13:53.954Z,86.60
2017-09-05T12:16:21.427Z,87.00
2017-09-05T12:18:49.013Z,87.40
2017-09-05T12:21:16.520Z,87.80
2017-09-05T12:23:44.083Z,88.00
2017-09-05T12:26:11.656Z,87.70
2017-09-05T12:28:39.916Z,88.70
2017-09-05T12:31:07.488Z,88.70
2017-09-05T12:33:35.034Z,89.70
2017-09-05T12:36:02.539Z,90.50
2017-09-05T12:38:30.034Z,90.70
2017-09-05T12:40:57.522Z,91.50
2017-09-05T12:43:26.757Z,91.90
2017-09-05T12:45:54.231Z,91.90
2017-09-05T12:48:21.707Z,92.20
2017-09-05T12:50:49.312Z,91.60
2017-09-05T12:53:16.787Z,91.90
2017-09-05T12:55:44.287Z,91.60
2017-09-05T12:58:11.753Z,91.80
2017-09-05T13:00:39.311Z,91.30
2017-09-05T13:03:06.776Z,91.30
2017-09-05T13:05:34.332Z,91.20
2017-09-05T13:08:02.085Z,90.90
2017-09-05T13:10:29.543Z,91.60
2017-09-05T13:12:57.092Z,91.60
2017-09-05T13:15:24.583Z,91.90
2017-09-05T13:17:52.807Z,92.50
2017-09-05T13:20:20.283Z,92.40
2017-09-05T13:22:47.808Z,92.60
2017-09-05T13:25:15.270Z,92.50
2017-09-05T13:27:42.865Z,93.20
2017-09-05T13:30:10.343Z,92.40
2017-09-05T13:32:37.880Z,92.60
2017-09-05T13:35:05.350Z,92.60
2017-09-05T13:37:32.887Z,92.40
2017-09-05T13:40:00.355Z,91.70
2017-09-05T13:42:27.816Z,90.70
2017-09-05T13:44:55.295Z,90.10
2017-09-05T13:47:22.842Z,89.00
2017-09-05T13:49:50.377Z,87.90
2017-09-05T13:52:17.848Z,88.10
2017-09-05T13:54:45.399Z,88.50
2017-09-05T13:57:12.877Z,86.00
2017-09-05T13:59:40.472Z,86.50
2017-09-05T14:02:07.940Z,85.60
2017-09-05T14:04:35.408Z,86.30
2017-09-05T14:07:02.983Z,85.90
2017-09-05T14:09:30.439Z,86.30
2017-09-05T14:11:57.987Z,83.40
2017-09-05T14:14:26.425Z,82.90
2017-09-05T14:16:53.903Z,82.20
2017-09-05T14:19:21.364Z,83.30
2017-09-05T14:21:48.870Z,84.90
2017-09-05T14:24:16.346Z,83.10
2017-09-05T14:26:43.863Z,82.90
2017-09-05T14:29:11.384Z,81.50
2017-09-05T14:31:38.882Z,81.30
2017-09-05T14:34:06.436Z,82.00
2017-09-05T14:36:33.922Z,82.00
2017-09-05T14:39:01.469Z,83.20
2017-09-05T14:41:29.011Z,81.80
2017-09-05T14:43:56.576Z,82.80
2017-09-05T14:46:24.136Z,81.30
2017-09-05T14:48:51.596Z,81.00
2017-09-05T14:51:19.240Z,81.00
2017-09-05T14:53:47.648Z,81.40
2017-09-05T14:56:15.875Z,83.50
2017-09-05T14:58:43.347Z,82.70
2017-09-05T15:01:10.808Z,83.20
2017-09-05T15:03:38.269Z,83.20
2017-09-05T15:06:05.945Z,84.10
2017-09-05T15:08:34.180Z,82.80
2017-09-05T15:11:01.751Z,82.80
2017-09-05T15:13:29.383Z,82.60
2017-09-05T15:15:56.885Z,81.90
2017-09-05T15:18:24.405Z,80.50
2017-09-05T15:20:52.463Z,79.60
2017-09-05T15:23:20.327Z,79.30
2017-09-05T15:25:49.217Z,79.30
2017-09-05T15:28:17.186Z,80.60
2017-09-05T15:30:45.087Z,80.80
2017-09-05T15:33:13.022Z,79.00
2017-09-05T15:35:40.865Z,78.50
2017-09-05T15:38:09.675Z,78.50
2017-09-05T15:40:37.539Z,77.80
2017-09-05T15:43:06.022Z,79.30
2017-09-05T15:45:33.990Z,79.50
2017-09-05T15:48:02.076Z,80.00
2017-09-05T15:50:29.928Z,80.10
2017-09-05T15:52:57.899Z,80.30
2017-09-05T15:55:25.761Z,81.50
2017-09-05T15:57:53.730Z,80.70
2017-09-05T16:00:21.801Z,81.20
2017-09-05T16:02:49.777Z,81.70
2017-09-05T16:05:17.940Z,82.50
2017-09-05T16:07:45.807Z,82.80
2017-09-05T16:10:13.877Z,83.30
2017-09-05T16:12:42.155Z,83.10
2017-09-05T16:15:10.020Z,83.30
2017-09-05T16:17:37.885Z,83.70
2017-09-05T16:20:06.468Z,83.90
2017-09-05T16:22:34.439Z,83.90
2017-09-05T16:25:03.122Z,84.90
2017-09-05T16:27:31.188Z,84.80
2017-09-05T16:29:59.061Z,86.10
2017-09-05T16:32:27.028Z,87.20
2017-09-05T16:34:54.997Z,87.90
2017-09-05T16:37:22.842Z,88.50
2017-09-05T16:39:50.832Z,89.30
2017-09-05T16:42:18.706Z,90.20
2017-09-05T16:44:46.769Z,90.20
2017-09-05T16:47:14.736Z,90.40
2017-09-05T16:49:42.690Z,90.50
2017-09-05T16:52:10.541Z,90.80
2017-09-05T16:54:38.411Z,91.10
2017-09-05T16:57:06.545Z,91.30
2017-09-05T16:59:34.482Z,91.40
2017-09-05T17:02:02.344Z,91.70
2017-09-05T17:04:30.308Z,92.00
2017-09-05T17:06:58.178Z,92.20
2017-09-05T17:09:26.151Z,92.40
2017-09-05T17:11:54.011Z,92.80
2017-09-05T17:14:21.971Z,92.50
2017-09-05T17:16:50.056Z,92.60
2017-09-05T17:19:18.018Z,92.10
2017-09-05T17:21:45.884Z,91.90
2017-09-05T17:24:13.749Z,91.80
2017-09-05T17:26:41.717Z,91.60
2017-09-05T17:29:09.893Z,91.70
2017-09-05T17:31:37.757Z,91.80
2017-09-05T17:34:05.645Z,91.70
2017-09-05T17:36:33.578Z,91.80
2017-09-05T17:39:02.073Z,91.70
2017-09-05T17:41:30.771Z,91.60
2017-09-05T17:43:58.958Z,91.60
2017-09-05T17:46:26.806Z,91.70
2017-09-05T17:48:55.276Z,91.60
2017-09-05T17:51:23.256Z,91.50
2017-09-05T17:53:51.192Z,91.50
2017-09-05T17:56:19.278Z,91.40
2017-09-05T17:58:47.117Z,91.40
2017-09-05T18:01:14.745Z,91.50
2017-09-05T18:03:43.399Z,90.90
2017-09-05T18:06:11.186Z,90.90
2017-09-05T18:08:38.845Z,91.00
2017-09-05T18:11:06.421Z,90.80
2017-09-05T18:13:33.884Z,90.70
2017-09-05T18:16:01.393Z,90.80
2017-09-05T18:18:28.855Z,90.70
2017-09-05T18:20:56.321Z,90.80
2017-09-05T18:23:23.815Z,90.80
2017-09-05T18:25:51.370Z,90.80
2017-09-05T18:28:18.844Z,91.00
2017-09-05T18:30:46.392Z,91.00
2017-09-05T18:33:13.861Z,91.00
2017-09-05T18:35:41.327Z,90.90
2017-09-05T18:38:08.794Z,90.90
2017-09-05T18:40:36.316Z,90.80
2017-09-05T18:43:03.775Z,90.90
2017-09-05T18:45:31.277Z,90.90
2017-09-05T18:47:58.791Z,91.00
2017-09-05T18:50:26.264Z,91.00
2017-09-05T18:52:53.732Z,91.10
2017-09-05T18:55:21.314Z,91.00
2017-09-05T18:57:48.775Z,91.00
2017-09-05T19:00:16.322Z,90.90
2017-09-05T19:02:43.792Z,90.90
2017-09-05T19:05:11.258Z,91.00
2017-09-05T19:07:38.760Z,90.90
2017-09-05T19:10:06.250Z,90.80
2017-09-05T19:12:33.759Z,90.80
2017-09-05T19:15:02.052Z,90.70
2017-09-05T19:17:30.304Z,90.80
2017-09-05T19:19:57.832Z,90.70
2017-09-05T19:22:25.305Z,90.80
2017-09-05T19:24:52.891Z,90.90
2017-09-05T19:27:20.407Z,90.90
2017-09-05T19:29:48.227Z,91.20
2017-09-05T19:32:16.060Z,90.90
2017-09-05T19:34:43.647Z,90.90
2017-09-05T19:37:11.155Z,90.90
2017-09-05T19:39:38.660Z,91.00
2017-09-05T19:42:06.119Z,90.80
2017-09-05T19:44:33.591Z,90.70
2017-09-05T19:47:01.133Z,90.80
2017-09-05T19:49:28.708Z,90.60
2017-09-05T19:51:56.189Z,90.70
2017-09-05T19:54:23.673Z,90.50
2017-09-05T19:56:51.128Z,90.50
2017-09-05T19:59:18.665Z,90.60
2017-09-05T20:01:46.260Z,90.50
2017-09-05T20:04:13.760Z,90.50
2017-09-05T20:06:41.212Z,90.50
2017-09-05T20:09:08.908Z,90.60
2017-09-05T20:11:36.403Z,90.70
2017-09-05T20:14:03.940Z,90.50
2017-09-05T20:16:31.447Z,90.50
2017-09-05T20:18:58.968Z,90.60
2017-09-05T20:21:26.426Z,90.60
2017-09-05T20:23:53.899Z,90.70
2017-09-05T20:26:21.368Z,90.80
2017-09-05T20:28:48.900Z,91.00
2017-09-05T20:31:16.380Z,91.00
2017-09-05T20:33:43.856Z,91.00
2017-09-05T20:36:11.323Z,91.20
2017-09-05T20:38:38.827Z,91.30
2017-09-05T20:41:07.202Z,91.30
2017-09-05T20:43:34.671Z,91.30
2017-09-05T20:46:02.389Z,91.30
2017-09-05T20:48:29.926Z,91.40
2017-09-05T20:50:57.459Z,91.40
2017-09-05T20:53:25.009Z,91.50
2017-09-05T20:55:53.440Z,91.60
2017-09-05T20:58:20.908Z,91.70
2017-09-05T21:00:49.219Z,91.60
2017-09-05T21:03:16.668Z,91.60
2017-09-05T21:05:44.127Z,91.50
2017-09-05T21:08:11.695Z,91.40
2017-09-05T21:10:39.228Z,91.20
2017-09-05T21:13:06.729Z,91.30
2017-09-05T21:15:34.184Z,91.30
2017-09-05T21:18:01.716Z,91.30
2017-09-05T21:20:29.183Z,91.30
2017-09-05T21:22:56.658Z,91.40
2017-09-05T21:25:24.124Z,91.40
2017-09-05T21:27:51.627Z,91.40
2017-09-05T21:30:19.115Z,91.30
2017-09-05T21:32:46.659Z,91.40
2017-09-05T21:35:14.128Z,91.40
2017-09-05T21:37:41.597Z,91.40
2017-09-05T21:40:09.852Z,91.20
2017-09-05T21:42:37.316Z,91.20
2017-09-05T21:45:05.687Z,91.20
2017-09-05T21:47:33.151Z,91.30
2017-09-05T21:50:01.407Z,91.10
2017-09-05T21:52:29.709Z,91.00
2017-09-05T21:54:57.928Z,91.20
2017-09-05T21:57:25.414Z,91.20
2017-09-05T21:59:52.900Z,91.20
2017-09-05T22:02:20.435Z,91.20
2017-09-05T22:04:48.619Z,91.30
2017-09-05T22:07:16.080Z,91.30
2017-09-05T22:09:43.560Z,91.30
2017-09-05T22:12:11.076Z,91.30
2017-09-05T22:14:44.231Z,91.20
2017-09-05T22:17:17.468Z,91.30
2017-09-05T22:19:50.679Z,91.60
2017-09-05T22:22:18.135Z,91.60
2017-09-05T22:24:51.359Z,91.70
2017-09-05T22:27:24.619Z,91.60
2017-09-05T22:29:52.856Z,91.50
2017-09-05T22:32:20.436Z,91.50
2017-09-05T22:34:48.611Z,91.50
2017-09-05T22:37:16.074Z,91.80
2017-09-05T22:39:43.560Z,91.60
2017-09-05T22:42:11.061Z,91.60
2017-09-05T22:44:38.527Z,91.50
2017-09-05T22:47:05.979Z,91.60
2017-09-05T22:49:33.445Z,91.70
2017-09-05T22:52:01.007Z,91.90
2017-09-05T22:54:29.374Z,92.20
2017-09-05T22:56:56.856Z,92.60
2017-09-05T22:59:24.403Z,92.50
2017-09-05T23:01:51.903Z,92.70
2017-09-05T23:04:19.415Z,92.80
2017-09-05T23:06:47.695Z,92.90
2017-09-05T23:09:15.180Z,93.20
2017-09-05T23:11:42.703Z,93.30
2017-09-05T23:14:10.187Z,93.30
2017-09-05T23:16:37.650Z,93.70
2017-09-05T23:19:05.117Z,93.40
2017-09-05T23:21:32.624Z,93.40
2017-09-05T23:24:00.083Z,93.40
2017-09-05T23:26:27.558Z,93.30
2017-09-05T23:28:55.024Z,93.30
2017-09-05T23:31:22.474Z,93.40
2017-09-05T23:33:50.027Z,93.30
2017-09-05T23:36:17.500Z,93.50
2017-09-05T23:38:44.958Z,93.40
2017-09-05T23:41:12.484Z,93.40
2017-09-05T23:43:39.960Z,93.40
2017-09-05T23:46:08.224Z,93.40
2017-09-05T23:48:35.810Z,93.30
2017-09-05T23:51:03.271Z,93.40
2017-09-05T23:53:30.739Z,93.40
2017-09-05T23:55:58.254Z,93.50
2017-09-05T23:58:25.730Z,93.60
